Time;durP1;ratioP1;P1;durP2;ratioP2;P2;SDS_P1;SDS_P2;PMS_P1;PMS_P2;Temp;Humidity;BMP_temperature;BMP_pressure;BME280_temperature;BME280_humidity;BME280_pressure;Samples;Min_cycle;Max_cycle;Signal;HPM_P1;HPM_P2
2023/08/23 00:02:13;;;;;;;5.93;4.90;;;16.80;99.90;;;;;;5071926;28;20040;-57
2023/08/23 00:04:38;;;;;;;7.57;4.63;;;16.80;99.90;;;;;;5072155;28;20068;-57
2023/08/23 00:07:04;;;;;;;5.60;4.97;;;16.80;99.90;;;;;;5071970;28;20033;-57
2023/08/23 00:09:30;;;;;;;6.60;4.90;;;16.60;99.90;;;;;;5072194;28;20040;-57
2023/08/23 00:11:55;;;;;;;6.93;5.53;;;16.60;99.90;;;;;;5071942;28;20111;-57
2023/08/23 00:14:21;;;;;;;5.20;4.70;;;16.60;99.90;;;;;;5071943;28;20120;-57
2023/08/23 00:16:47;;;;;;;7.15;5.15;;;16.60;99.90;;;;;;5070607;28;20048;-57
2023/08/23 00:19:12;;;;;;;5.50;5.00;;;16.60;99.90;;;;;;5071605;28;20051;-57
2023/08/23 00:21:38;;;;;;;6.68;5.40;;;16.50;99.90;;;;;;5069880;28;20514;-56
2023/08/23 00:24:04;;;;;;;7.28;5.95;;;16.60;99.90;;;;;;5071729;28;20108;-57
2023/08/23 00:26:30;;;;;;;9.00;5.10;;;16.50;99.90;;;;;;5071288;28;20042;-57
2023/08/23 00:28:55;;;;;;;7.45;5.47;;;16.50;99.90;;;;;;5071340;28;20052;-57
2023/08/23 00:31:21;;;;;;;6.00;5.13;;;16.50;99.90;;;;;;5071564;28;20119;-57
2023/08/23 00:33:46;;;;;;;6.05;5.45;;;16.60;99.90;;;;;;5072054;28;20043;-56
2023/08/23 00:36:12;;;;;;;6.75;5.35;;;16.60;99.90;;;;;;5071678;28;20502;-57
2023/08/23 00:38:38;;;;;;;5.03;4.60;;;16.60;99.90;;;;;;5071627;28;20040;-57
2023/08/23 00:41:03;;;;;;;4.80;4.03;;;16.60;99.90;;;;;;5071597;28;20036;-57
2023/08/23 00:43:29;;;;;;;6.28;4.68;;;16.50;99.90;;;;;;5072141;28;20040;-57
2023/08/23 00:45:55;;;;;;;4.57;4.18;;;16.60;99.90;;;;;;5075585;28;20115;-57
2023/08/23 00:48:20;;;;;;;4.25;3.67;;;16.50;99.90;;;;;;5075441;28;20090;-57
2023/08/23 00:50:46;;;;;;;4.38;3.97;;;16.60;99.90;;;;;;5071126;28;20036;-57
2023/08/23 00:53:14;;;;;;;6.85;4.00;;;16.50;99.90;;;;;;5075412;28;20062;-57
2023/08/23 00:55:41;;;;;;;6.80;4.45;;;16.50;99.90;;;;;;5075484;28;20051;-57
2023/08/23 00:58:07;;;;;;;7.03;4.68;;;16.50;99.90;;;;;;5075045;28;20040;-57
2023/08/23 01:00:33;;;;;;;6.45;5.13;;;16.30;99.90;;;;;;5075367;28;20039;-57
2023/08/23 01:02:59;;;;;;;4.43;4.00;;;16.30;99.90;;;;;;5074943;28;20506;-57
2023/08/23 01:05:59;;;;;;;5.03;4.40;;;16.30;99.90;;;;;;5075270;28;20037;-57
2023/08/23 01:08:33;;;;;;;5.82;5.03;;;16.30;99.90;;;;;;5071877;28;20068;-57
2023/08/23 01:11:12;;;;;;;5.25;4.70;;;16.30;99.90;;;;;;5075187;28;20044;-56
2023/08/23 01:13:53;;;;;;;6.18;5.28;;;16.40;99.90;;;;;;5074824;28;20505;-57
2023/08/23 01:16:20;;;;;;;12.40;6.20;;;16.40;99.90;;;;;;5074989;28;20048;-57
2023/08/23 01:18:46;;;;;;;7.20;5.72;;;16.30;99.90;;;;;;5074957;28;20055;-56
2023/08/23 01:21:17;;;;;;;6.35;5.07;;;16.30;99.90;;;;;;5066205;28;20395;-57
2023/08/23 01:23:44;;;;;;;7.28;5.70;;;16.30;99.90;;;;;;5074963;28;20047;-56
2023/08/23 01:26:10;;;;;;;9.43;5.68;;;16.20;99.90;;;;;;5065617;28;20032;-57
2023/08/23 01:28:36;;;;;;;5.47;4.97;;;16.20;99.90;;;;;;5074626;28;20055;-56
2023/08/23 01:31:06;;;;;;;21.15;5.90;;;16.20;99.90;;;;;;5074726;28;20039;-57
2023/08/23 01:33:39;;;;;;;6.95;5.30;;;16.30;99.90;;;;;;5074829;28;20078;-57
2023/08/23 01:36:25;;;;;;;8.52;5.45;;;16.30;99.90;;;;;;5074573;28;20082;-57
2023/08/23 01:39:12;;;;;;;5.47;4.97;;;16.20;99.90;;;;;;5074509;28;20551;-57
2023/08/23 01:41:38;;;;;;;5.40;4.40;;;16.20;99.90;;;;;;5070607;28;20055;-57
2023/08/23 01:44:05;;;;;;;4.90;4.32;;;16.20;99.90;;;;;;5074684;28;20378;-57
2023/08/23 01:46:30;;;;;;;4.63;4.10;;;16.10;99.90;;;;;;5074523;28;20107;-57
2023/08/23 01:48:56;;;;;;;4.75;3.85;;;16.10;99.90;;;;;;5073188;28;20110;-57
2023/08/23 01:51:21;;;;;;;4.20;3.55;;;16.10;99.90;;;;;;5054711;28;20045;-57
2023/08/23 01:53:47;;;;;;;4.20;3.75;;;16.10;99.90;;;;;;5053721;28;20051;-57
2023/08/23 01:56:13;;;;;;;7.25;4.85;;;16.10;99.90;;;;;;5053763;28;20503;-57
2023/08/23 01:58:38;;;;;;;6.68;4.45;;;16.00;99.90;;;;;;5053998;28;20041;-57
2023/08/23 02:01:04;;;;;;;6.32;4.50;;;16.00;99.90;;;;;;5054567;28;20124;-57
2023/08/23 02:03:30;;;;;;;7.07;5.68;;;16.00;99.90;;;;;;5065157;28;20479;-57
2023/08/23 02:05:55;;;;;;;7.55;5.60;;;16.00;99.90;;;;;;5074111;28;20028;-57
2023/08/23 02:08:21;;;;;;;5.32;4.65;;;16.00;99.90;;;;;;5071029;28;20437;-57
2023/08/23 02:10:47;;;;;;;6.28;3.92;;;16.00;99.90;;;;;;5054174;28;20078;-57
2023/08/23 02:13:12;;;;;;;5.47;3.40;;;16.10;99.90;;;;;;5053896;28;20041;-57
2023/08/23 02:15:38;;;;;;;8.73;4.20;;;15.90;99.90;;;;;;5054148;28;20075;-57
2023/08/23 02:18:04;;;;;;;5.38;3.20;;;15.90;99.90;;;;;;5053840;28;20037;-57
2023/08/23 02:20:29;;;;;;;24.85;3.78;;;15.90;99.90;;;;;;5053509;28;20609;-57
2023/08/23 02:22:55;;;;;;;4.53;2.95;;;15.90;99.90;;;;;;5054010;28;20045;-57
2023/08/23 02:25:21;;;;;;;4.03;3.13;;;15.70;99.90;;;;;;5053421;28;20681;-57
2023/08/23 02:27:46;;;;;;;2.72;2.53;;;15.70;99.90;;;;;;5053601;28;20078;-57
2023/08/23 02:30:12;;;;;;;4.75;3.95;;;15.80;99.90;;;;;;5070246;28;20052;-57
2023/08/23 02:32:38;;;;;;;5.53;4.22;;;15.70;99.90;;;;;;5073231;28;20037;-57
2023/08/23 02:35:04;;;;;;;15.07;4.78;;;15.60;99.90;;;;;;5073784;28;20445;-56
2023/08/23 02:37:29;;;;;;;8.10;4.90;;;15.60;99.90;;;;;;5073462;28;20494;-57
2023/08/23 02:39:55;;;;;;;7.40;5.82;;;15.50;99.90;;;;;;5073406;28;20055;-57
2023/08/23 02:42:21;;;;;;;7.20;6.00;;;15.60;99.90;;;;;;5073061;28;20470;-57
2023/08/23 02:44:46;;;;;;;6.05;5.45;;;15.60;99.90;;;;;;5073380;28;20032;-57
2023/08/23 02:47:12;;;;;;;9.07;6.20;;;15.60;99.90;;;;;;5073092;28;20032;-57
2023/08/23 02:49:38;;;;;;;7.00;6.25;;;15.70;99.90;;;;;;5068124;28;20041;-57
2023/08/23 02:52:04;;;;;;;9.73;6.18;;;15.60;99.90;;;;;;5064010;28;20479;-57
2023/08/23 02:54:29;;;;;;;10.48;6.15;;;15.70;99.90;;;;;;5068626;28;20518;-57
2023/08/23 02:56:55;;;;;;;49.15;6.43;;;15.80;99.90;;;;;;5061876;28;20135;-56
2023/08/23 02:59:20;;;;;;;19.10;5.70;;;15.70;99.90;;;;;;5070525;28;20403;-57
2023/08/23 03:01:46;;;;;;;23.00;6.03;;;15.70;99.90;;;;;;5051875;28;20049;-56
2023/08/23 03:04:12;;;;;;;44.00;6.45;;;15.70;99.90;;;;;;5053232;28;20045;-57
2023/08/23 03:06:37;;;;;;;70.32;7.55;;;15.80;99.90;;;;;;5065515;28;20075;-57
2023/08/23 03:09:03;;;;;;;25.50;7.03;;;15.80;99.90;;;;;;5071955;28;20505;-57
2023/08/23 03:11:29;;;;;;;14.48;6.13;;;15.80;99.90;;;;;;5072656;28;20040;-57
2023/08/23 03:13:56;;;;;;;12.35;5.78;;;15.70;99.90;;;;;;5071441;28;20497;-57
2023/08/23 03:16:22;;;;;;;13.77;6.90;;;15.70;99.90;;;;;;5072800;28;20047;-57
2023/08/23 03:18:47;;;;;;;5.75;5.07;;;15.70;99.90;;;;;;5072722;28;20045;-56
2023/08/23 03:21:13;;;;;;;7.50;6.35;;;15.80;99.90;;;;;;5068294;28;20045;-56
2023/08/23 03:23:39;;;;;;;9.68;5.80;;;15.80;99.90;;;;;;5072453;28;20115;-56
2023/08/23 03:26:05;;;;;;;7.80;6.70;;;15.80;99.90;;;;;;5069424;28;20041;-57
2023/08/23 03:28:31;;;;;;;7.22;6.25;;;15.80;99.90;;;;;;5072227;28;20053;-57
2023/08/23 03:31:03;;;;;;;7.60;6.82;;;15.80;99.90;;;;;;5072412;28;20054;-56
2023/08/23 03:33:29;;;;;;;7.50;6.30;;;15.80;99.90;;;;;;5046127;28;20040;-56
2023/08/23 03:35:55;;;;;;;10.32;7.68;;;15.80;99.90;;;;;;5072226;28;20047;-57
2023/08/23 03:38:21;;;;;;;8.45;7.57;;;15.80;99.90;;;;;;5072296;28;20109;-56
2023/08/23 03:40:46;;;;;;;7.57;6.78;;;15.80;99.90;;;;;;5072231;28;20033;-56
2023/08/23 03:43:12;;;;;;;10.27;7.82;;;15.80;99.90;;;;;;5071887;28;20047;-56
2023/08/23 03:45:48;;;;;;;7.32;6.55;;;15.90;99.90;;;;;;5072446;28;20532;-56
2023/08/23 03:48:14;;;;;;;8.60;7.43;;;15.90;99.90;;;;;;5072250;28;20068;-56
2023/08/23 03:50:40;;;;;;;8.32;7.05;;;15.90;99.90;;;;;;5063553;28;20046;-56
2023/08/23 03:53:06;;;;;;;9.25;7.60;;;15.90;99.90;;;;;;5072080;28;20040;-56
2023/08/23 03:55:32;;;;;;;9.15;7.90;;;16.00;99.90;;;;;;5063176;28;20040;-57
2023/08/23 03:57:57;;;;;;;9.52;7.50;;;16.00;99.90;;;;;;5071836;28;20398;-56
2023/08/23 04:00:23;;;;;;;11.52;7.35;;;15.90;99.90;;;;;;5062116;28;20041;-56
2023/08/23 04:02:49;;;;;;;9.10;7.60;;;16.00;99.90;;;;;;5065780;28;20047;-56
2023/08/23 04:05:14;;;;;;;15.43;9.05;;;16.10;99.90;;;;;;5071922;28;20036;-57
2023/08/23 04:07:40;;;;;;;9.38;7.88;;;16.10;99.90;;;;;;5071956;28;20432;-56
2023/08/23 04:10:07;;;;;;;12.32;7.35;;;16.10;99.90;;;;;;5071414;28;20037;-56
2023/08/23 04:12:33;;;;;;;10.80;8.90;;;16.10;99.90;;;;;;5071639;28;20115;-57
2023/08/23 04:14:58;;;;;;;8.85;7.95;;;16.10;99.90;;;;;;5071903;28;20128;-57
2023/08/23 04:17:24;;;;;;;9.05;8.15;;;16.20;99.90;;;;;;5070707;28;20044;-56
2023/08/23 04:19:50;;;;;;;9.38;8.43;;;16.20;99.90;;;;;;5067953;28;20035;-57
2023/08/23 04:22:15;;;;;;;7.90;7.10;;;16.10;99.90;;;;;;5071822;28;20397;-57
2023/08/23 04:24:41;;;;;;;13.88;7.65;;;16.20;99.90;;;;;;5071674;28;20141;-57
2023/08/23 04:27:07;;;;;;;7.78;7.00;;;16.10;99.90;;;;;;5071488;28;20040;-56
2023/08/23 04:29:32;;;;;;;8.35;7.10;;;16.10;99.90;;;;;;5071153;28;20044;-57
2023/08/23 04:31:58;;;;;;;8.90;6.75;;;16.10;99.90;;;;;;5071562;28;20046;-56
2023/08/23 04:34:24;;;;;;;7.90;7.00;;;16.00;99.90;;;;;;5071556;28;20050;-56
2023/08/23 04:36:49;;;;;;;10.07;7.50;;;16.00;99.90;;;;;;5071603;28;20040;-56
2023/08/23 04:39:15;;;;;;;7.80;7.00;;;15.90;99.90;;;;;;5059969;28;20479;-56
2023/08/23 04:41:41;;;;;;;11.35;8.10;;;15.80;99.90;;;;;;5064439;28;20118;-56
2023/08/23 04:44:06;;;;;;;8.45;7.55;;;15.90;99.90;;;;;;5071706;28;20028;-56
2023/08/23 04:46:32;;;;;;;10.20;7.72;;;15.90;99.90;;;;;;5070250;28;20029;-56
2023/08/23 04:48:57;;;;;;;12.38;8.88;;;15.80;99.90;;;;;;5067656;28;20031;-56
2023/08/23 04:51:23;;;;;;;10.70;9.15;;;15.80;99.90;;;;;;5069837;28;20086;-55
2023/08/23 04:53:49;;;;;;;14.40;9.73;;;15.90;99.90;;;;;;5068776;28;20045;-56
2023/08/23 04:56:15;;;;;;;14.05;10.27;;;15.90;99.90;;;;;;5070753;28;20094;-56
2023/08/23 04:58:40;;;;;;;10.75;9.35;;;15.90;99.90;;;;;;5071695;28;20043;-56
2023/08/23 05:01:06;;;;;;;15.07;11.02;;;15.90;99.90;;;;;;5068173;28;20053;-56
2023/08/23 05:03:32;;;;;;;15.32;10.93;;;15.90;99.90;;;;;;5051277;28;20041;-56
2023/08/23 05:05:59;;;;;;;16.67;12.18;;;15.80;99.90;;;;;;5051445;28;20387;-56
2023/08/23 05:08:25;;;;;;;14.60;12.00;;;15.80;99.90;;;;;;5061427;28;20102;-56
2023/08/23 05:10:55;;;;;;;17.98;13.13;;;15.80;99.90;;;;;;5071493;28;20141;-56
2023/08/23 05:13:21;;;;;;;14.68;12.07;;;15.90;99.90;;;;;;5071200;28;20823;-56
2023/08/23 05:15:51;;;;;;;16.58;12.50;;;15.90;99.90;;;;;;5071326;28;20032;-56
2023/08/23 05:18:17;;;;;;;23.05;14.93;;;15.90;99.90;;;;;;5071418;28;20102;-56
2023/08/23 05:20:42;;;;;;;18.40;13.98;;;15.90;99.90;;;;;;5067445;28;20040;-56
2023/08/23 05:23:08;;;;;;;24.55;14.15;;;15.90;99.90;;;;;;5071254;28;20036;-56
2023/08/23 05:25:33;;;;;;;22.63;17.00;;;15.90;99.90;;;;;;5071078;28;20824;-56
2023/08/23 05:27:59;;;;;;;23.65;16.38;;;15.90;99.90;;;;;;5071026;28;20053;-56
2023/08/23 05:30:25;;;;;;;23.15;17.20;;;16.00;99.90;;;;;;5071663;28;20402;-56
2023/08/23 05:32:50;;;;;;;25.25;17.35;;;16.00;99.90;;;;;;5073365;28;20044;-56
2023/08/23 05:35:16;;;;;;;25.67;17.48;;;16.00;99.90;;;;;;5074645;28;20040;-56
2023/08/23 05:37:41;;;;;;;25.67;18.00;;;16.00;99.90;;;;;;5067093;28;20479;-56
2023/08/23 05:40:08;;;;;;;22.60;17.27;;;16.00;99.90;;;;;;5070590;28;20044;-56
2023/08/23 05:42:34;;;;;;;28.27;18.48;;;16.00;99.90;;;;;;5074431;28;20051;-56
2023/08/23 05:44:59;;;;;;;26.42;18.30;;;16.00;99.90;;;;;;5074612;28;20475;-56
2023/08/23 05:47:25;;;;;;;27.70;18.13;;;16.00;99.90;;;;;;5074587;28;20063;-56
2023/08/23 05:49:51;;;;;;;27.15;18.83;;;16.00;99.90;;;;;;5074333;28;20471;-56
2023/08/23 05:52:17;;;;;;;23.00;17.40;;;15.90;99.90;;;;;;5074183;28;20490;-56
2023/08/23 05:54:42;;;;;;;26.27;17.92;;;16.00;99.90;;;;;;5074109;28;20040;-55
2023/08/23 05:57:08;;;;;;;27.83;19.30;;;16.10;99.90;;;;;;5074515;28;20044;-56
2023/08/23 05:59:34;;;;;;;23.92;18.15;;;16.30;99.90;;;;;;5071686;28;20053;-56
2023/08/23 06:01:59;;;;;;;23.50;18.02;;;16.40;99.90;;;;;;5054383;28;20080;-56
2023/08/23 06:04:25;;;;;;;24.17;18.60;;;16.50;99.90;;;;;;5054224;28;20040;-56
2023/08/23 06:06:51;;;;;;;26.75;19.08;;;16.40;99.90;;;;;;5054158;28;20143;-56
2023/08/23 06:09:19;;;;;;;23.70;17.98;;;16.60;99.90;;;;;;5053897;28;20442;-56
2023/08/23 06:11:45;;;;;;;26.23;18.13;;;16.70;99.90;;;;;;5066244;28;20047;-56
2023/08/23 06:14:24;;;;;;;25.67;18.05;;;16.80;99.90;;;;;;5073702;28;20084;-56
2023/08/23 06:16:50;;;;;;;24.88;18.17;;;16.80;99.90;;;;;;5073965;28;20044;-55
2023/08/23 06:19:16;;;;;;;23.00;17.77;;;17.00;99.90;;;;;;5073986;28;20041;-56
2023/08/23 06:21:43;;;;;;;24.42;17.30;;;16.90;99.90;;;;;;5072368;28;20045;-56
2023/08/23 06:24:09;;;;;;;22.73;17.33;;;17.00;99.90;;;;;;5072647;28;20075;-57
2023/08/23 06:26:35;;;;;;;21.65;16.35;;;17.10;99.90;;;;;;5074100;28;20093;-57
2023/08/23 06:29:01;;;;;;;20.83;16.02;;;17.20;99.90;;;;;;5073361;28;20060;-56
2023/08/23 06:31:26;;;;;;;21.48;16.35;;;17.40;99.90;;;;;;5073816;28;20115;-56
2023/08/23 06:33:52;;;;;;;20.05;15.63;;;17.40;99.90;;;;;;5073564;28;20047;-56
2023/08/23 06:36:18;;;;;;;20.98;16.13;;;17.50;99.90;;;;;;5073775;28;20033;-56
2023/08/23 06:38:44;;;;;;;19.27;16.65;;;17.40;99.90;;;;;;5073828;28;20063;-55
2023/08/23 06:41:10;;;;;;;21.60;15.98;;;17.70;99.90;;;;;;5073124;28;20113;-56
2023/08/23 06:43:35;;;;;;;20.48;16.08;;;17.90;99.90;;;;;;5073437;28;20062;-56
2023/08/23 06:46:01;;;;;;;22.58;17.05;;;18.10;99.90;;;;;;5073564;28;20433;-56
2023/08/23 06:48:27;;;;;;;19.98;17.17;;;18.20;99.90;;;;;;5073337;28;20032;-56
2023/08/23 06:50:54;;;;;;;19.80;16.35;;;18.40;99.90;;;;;;5073069;28;20036;-56
2023/08/23 06:53:20;;;;;;;17.90;15.40;;;18.60;99.90;;;;;;5073586;28;20043;-56
2023/08/23 06:55:46;;;;;;;21.85;16.90;;;18.90;99.90;;;;;;5073503;28;20040;-56
2023/08/23 06:58:12;;;;;;;17.83;15.93;;;19.00;99.90;;;;;;5073178;28;20040;-56
2023/08/23 07:00:37;;;;;;;19.10;15.07;;;19.30;99.90;;;;;;5061505;28;20116;-56
2023/08/23 07:03:04;;;;;;;18.77;15.65;;;19.60;99.90;;;;;;5053033;28;20040;-56
2023/08/23 07:05:29;;;;;;;18.77;16.13;;;19.90;99.90;;;;;;5053247;28;20037;-57
2023/08/23 07:07:55;;;;;;;17.40;14.82;;;20.30;99.90;;;;;;5053137;28;20367;-56
2023/08/23 07:10:21;;;;;;;18.80;13.13;;;20.40;99.90;;;;;;5069640;28;20111;-56
2023/08/23 07:12:46;;;;;;;13.35;11.90;;;20.80;99.90;;;;;;5072925;28;20040;-56
2023/08/23 07:15:12;;;;;;;13.82;12.35;;;20.90;99.90;;;;;;5073315;28;20037;-59
2023/08/23 07:17:38;;;;;;;16.02;11.95;;;21.20;99.90;;;;;;5073284;28;20548;-59
2023/08/23 07:20:05;;;;;;;14.13;11.32;;;21.30;99.90;;;;;;5073854;28;20123;-56
2023/08/23 07:22:31;;;;;;;16.42;11.93;;;21.70;99.90;;;;;;5073140;28;20051;-59
2023/08/23 07:24:57;;;;;;;10.90;9.82;;;21.80;99.90;;;;;;5071918;28;20143;-58
2023/08/23 07:27:23;;;;;;;11.90;10.30;;;22.20;99.90;;;;;;5073138;28;20035;-59
2023/08/23 07:29:49;;;;;;;14.13;10.93;;;22.50;99.90;;;;;;5073028;28;20110;-58
2023/08/23 07:32:14;;;;;;;12.63;10.48;;;22.40;99.90;;;;;;5072952;28;20469;-59
2023/08/23 07:34:40;;;;;;;12.70;10.63;;;22.40;99.90;;;;;;5072842;28;20046;-59
2023/08/23 07:37:06;;;;;;;18.60;11.23;;;22.30;99.90;;;;;;5072803;28;20043;-60
2023/08/23 07:39:32;;;;;;;11.73;10.50;;;22.20;99.90;;;;;;5072833;28;20063;-59
2023/08/23 07:41:57;;;;;;;14.27;10.63;;;22.10;99.90;;;;;;5072610;28;20044;-59
2023/08/23 07:44:23;;;;;;;10.60;9.48;;;22.00;99.90;;;;;;5072822;28;20036;-58
2023/08/23 07:46:49;;;;;;;12.45;10.82;;;21.90;99.90;;;;;;5073128;28;20032;-59
2023/08/23 07:49:15;;;;;;;12.98;10.10;;;22.10;99.90;;;;;;5072652;28;20040;-59
2023/08/23 07:51:40;;;;;;;11.98;10.18;;;22.20;99.90;;;;;;5072968;28;20075;-59
2023/08/23 07:54:07;;;;;;;10.57;9.00;;;22.20;99.90;;;;;;5072209;28;20064;-59
2023/08/23 07:56:33;;;;;;;9.40;8.50;;;22.40;99.90;;;;;;5072358;28;20111;-59
2023/08/23 07:58:59;;;;;;;11.35;8.77;;;22.50;99.90;;;;;;5072578;28;20115;-59
2023/08/23 08:01:25;;;;;;;12.68;8.43;;;22.90;99.90;;;;;;5054020;28;20048;-58
2023/08/23 08:03:51;;;;;;;11.00;7.85;;;23.40;99.90;;;;;;5052110;28;20040;-59
2023/08/23 08:06:17;;;;;;;9.00;7.35;;;23.70;99.90;;;;;;5052360;28;20040;-59
2023/08/23 08:08:43;;;;;;;8.75;7.72;;;24.10;99.90;;;;;;5071615;28;20389;-58
2023/08/23 08:11:12;;;;;;;11.25;8.55;;;24.30;99.90;;;;;;5072734;28;20040;-58
2023/08/23 08:13:38;;;;;;;11.35;7.30;;;24.20;99.90;;;;;;5072497;28;20036;-59
2023/08/23 08:16:12;;;;;;;11.82;7.15;;;24.60;99.90;;;;;;5072532;28;20036;-58
2023/08/23 08:18:38;;;;;;;10.85;7.80;;;24.90;99.90;;;;;;5072287;28;20062;-59
2023/08/23 08:21:04;;;;;;;10.35;7.68;;;25.10;99.90;;;;;;5072048;28;20115;-58
2023/08/23 08:23:30;;;;;;;9.75;7.03;;;25.50;99.90;;;;;;5072117;28;20162;-58
2023/08/23 08:25:56;;;;;;;6.88;5.57;;;25.70;99.90;;;;;;5072090;28;20037;-59
2023/08/23 08:28:22;;;;;;;9.88;7.13;;;26.00;99.90;;;;;;5071978;28;20060;-59
2023/08/23 08:30:48;;;;;;;7.43;6.63;;;25.90;99.90;;;;;;5071827;28;20048;-59
2023/08/23 08:33:13;;;;;;;9.70;6.55;;;25.90;99.90;;;;;;5071865;28;20045;-58
2023/08/23 08:35:39;;;;;;;11.15;6.55;;;25.70;99.90;;;;;;5072381;28;20041;-58
2023/08/23 08:38:08;;;;;;;10.02;6.82;;;25.70;99.90;;;;;;5071993;28;20076;-59
2023/08/23 08:40:39;;;;;;;8.90;7.05;;;25.70;99.90;;;;;;5071779;28;20525;-59
2023/08/23 08:43:05;;;;;;;11.93;7.57;;;25.50;99.90;;;;;;5071537;28;20690;-59
2023/08/23 08:45:32;;;;;;;9.05;6.97;;;25.40;99.90;;;;;;5071381;28;20063;-58
2023/08/23 08:47:58;;;;;;;9.73;6.38;;;25.30;99.90;;;;;;5071717;28;20521;-59
2023/08/23 08:50:30;;;;;;;12.07;6.75;;;25.70;99.90;;;;;;5070475;28;20122;-58
2023/08/23 08:52:59;;;;;;;11.63;7.38;;;26.10;99.90;;;;;;5070603;28;20056;-59
2023/08/23 08:55:26;;;;;;;9.52;6.30;;;26.20;99.90;;;;;;5071869;28;20106;-59
2023/08/23 08:57:54;;;;;;;9.88;6.93;;;26.50;99.90;;;;;;5071918;28;20036;-59
2023/08/23 09:00:22;;;;;;;9.95;6.07;;;26.30;99.90;;;;;;5044560;28;20068;-59
2023/08/23 09:02:52;;;;;;;9.98;6.53;;;26.30;99.90;;;;;;5051479;28;20037;-59
2023/08/23 09:05:22;;;;;;;14.20;6.85;;;26.10;99.90;;;;;;5051820;28;20031;-59
2023/08/23 09:07:49;;;;;;;14.15;7.32;;;26.00;99.90;;;;;;5055341;28;20112;-59
2023/08/23 09:10:15;;;;;;;9.93;6.32;;;26.10;99.90;;;;;;5055618;28;20048;-58
2023/08/23 09:12:40;;;;;;;9.85;6.60;;;25.90;99.90;;;;;;5054204;28;20475;-59
2023/08/23 09:15:07;;;;;;;8.85;6.60;;;26.10;99.90;;;;;;5055608;28;20430;-59
2023/08/23 09:17:37;;;;;;;9.82;6.60;;;26.30;99.90;;;;;;5055128;28;20025;-58
2023/08/23 09:20:07;;;;;;;7.18;6.10;;;26.20;99.90;;;;;;5055191;28;20037;-59
2023/08/23 09:22:33;;;;;;;12.45;6.57;;;26.00;99.90;;;;;;5055340;28;20037;-58
2023/08/23 09:25:00;;;;;;;8.02;5.90;;;25.90;99.90;;;;;;5055452;28;20106;-59
2023/08/23 09:27:26;;;;;;;14.27;6.90;;;25.90;99.90;;;;;;5054096;28;20056;-59
2023/08/23 09:29:57;;;;;;;11.02;7.25;;;26.10;99.90;;;;;;5054883;28;20408;-59
2023/08/23 09:32:24;;;;;;;9.18;6.55;;;26.10;99.90;;;;;;5055274;28;20040;-59
2023/08/23 09:34:50;;;;;;;10.48;7.47;;;26.30;99.90;;;;;;5055167;28;20049;-59
2023/08/23 09:37:17;;;;;;;11.10;7.28;;;26.10;99.90;;;;;;5054029;28;20518;-60
2023/08/23 09:39:43;;;;;;;10.90;8.13;;;26.10;99.90;;;;;;5055031;28;20040;-59
2023/08/23 09:42:13;;;;;;;12.10;7.25;;;26.20;99.90;;;;;;5055104;28;20041;-59
2023/08/23 09:44:43;;;;;;;10.45;6.60;;;26.20;99.90;;;;;;5072491;28;20068;-59
2023/08/23 09:47:24;;;;;;;12.90;8.50;;;26.10;99.90;;;;;;5074729;28;20097;-59
2023/08/23 09:49:51;;;;;;;9.68;7.32;;;25.90;99.90;;;;;;5074449;28;20040;-60
2023/08/23 09:52:18;;;;;;;11.20;7.88;;;25.90;99.90;;;;;;5074556;28;20045;-59
2023/08/23 09:54:58;;;;;;;10.77;8.13;;;25.60;99.90;;;;;;5068819;28;20045;-59
2023/08/23 09:57:25;;;;;;;10.27;7.20;;;25.30;99.90;;;;;;5065356;28;20521;-59
2023/08/23 09:59:52;;;;;;;12.00;7.57;;;25.10;99.90;;;;;;5068998;28;20044;-60
2023/08/23 10:02:18;;;;;;;10.90;7.18;;;25.10;99.90;;;;;;5054228;28;20041;-59
2023/08/23 10:04:45;;;;;;;12.20;6.53;;;25.10;99.90;;;;;;5054591;28;20040;-59
2023/08/23 10:07:15;;;;;;;9.25;6.25;;;25.20;99.90;;;;;;5054164;28;20483;-62
2023/08/23 10:09:41;;;;;;;8.73;5.97;;;25.10;99.90;;;;;;5053997;28;20113;-59
2023/08/23 10:12:10;;;;;;;8.73;6.47;;;25.50;99.90;;;;;;5053958;28;20048;-61
2023/08/23 10:14:37;;;;;;;;;;;26.00;99.90;;;;;;5054151;28;20051;-60
2023/08/23 10:17:05;;;;;;;8.40;5.22;;;27.10;99.90;;;;;;5051978;28;19963;-61
2023/08/23 10:19:31;;;;;;;8.52;5.10;;;27.60;99.90;;;;;;5053905;28;20434;-62
2023/08/23 10:21:58;;;;;;;8.20;4.68;;;27.90;99.90;;;;;;5052200;28;20116;-61
2023/08/23 10:24:31;;;;;;;10.57;5.13;;;28.80;99.90;;;;;;5053888;28;20041;-59
2023/08/23 10:27:06;;;;;;;7.47;4.68;;;29.70;99.90;;;;;;5053800;28;20762;-59
2023/08/23 10:29:32;;;;;;;9.68;6.55;;;30.20;99.90;;;;;;5053352;28;20057;-61
2023/08/23 10:31:57;;;;;;;6.43;4.88;;;29.80;99.90;;;;;;5065464;28;20044;-62
2023/08/23 10:34:27;;;;;;;9.30;4.95;;;30.30;99.90;;;;;;5073364;28;20040;-61
2023/08/23 10:36:56;;;;;;;8.23;4.05;;;29.90;99.90;;;;;;5073458;28;20036;-59
2023/08/23 10:39:23;;;;;;;8.75;4.32;;;29.50;99.90;;;;;;5072217;28;20123;-60
2023/08/23 10:41:53;;;;;;;7.30;4.70;;;29.80;99.90;;;;;;5072030;28;20119;-60
2023/08/23 10:44:20;;;;;;;7.70;3.40;;;29.80;99.90;;;;;;5073323;28;20774;-61
2023/08/23 10:46:49;;;;;;;5.80;4.70;;;31.10;99.90;;;;;;5073357;28;20037;-60
2023/08/23 10:49:16;;;;;;;;;;;31.00;99.90;;;;;;5062527;28;20472;-61
2023/08/23 10:51:42;;;;;;;6.68;3.33;;;31.00;99.90;;;;;;5068634;28;20275;-60
2023/08/23 10:54:15;;;;;;;7.65;4.40;;;31.40;99.90;;;;;;5063781;28;20086;-61
2023/08/23 10:56:40;;;;;;;8.07;3.47;;;31.60;99.90;;;;;;5067469;28;20048;-60
2023/08/23 10:59:07;;;;;;;6.22;3.40;;;32.10;99.90;;;;;;5073172;28;20368;-60
2023/08/23 11:01:39;;;;;;;6.47;4.20;;;32.70;99.90;;;;;;5053564;28;20505;-60
2023/08/23 11:04:08;;;;;;;4.53;2.80;;;32.40;99.90;;;;;;5053027;28;20052;-62
2023/08/23 11:06:35;;;;;;;10.43;3.83;;;32.80;99.90;;;;;;5052845;28;20064;-60
2023/08/23 11:09:01;;;;;;;5.03;4.45;;;32.50;99.90;;;;;;5052909;28;20029;-61
2023/08/23 11:11:29;;;;;;;6.40;4.07;;;32.20;99.90;;;;;;5066644;28;20107;-60
2023/08/23 11:13:54;;;;;;;8.07;4.72;;;32.20;99.90;;;;;;5060560;28;20082;-60
2023/08/23 11:16:21;;;;;;;7.88;4.03;;;32.60;99.90;;;;;;5072600;28;20037;-60
2023/08/23 11:18:47;;;;;;;7.05;2.72;;;32.70;99.90;;;;;;5067473;28;20043;-60
2023/08/23 11:21:12;;;;;;;7.35;2.65;;;32.80;99.80;;;;;;5072598;28;20037;-60
2023/08/23 11:23:38;;;;;;;10.52;2.80;;;32.90;98.90;;;;;;5065655;28;20037;-61
2023/08/23 11:26:04;;;;;;;13.20;2.50;;;32.90;99.50;;;;;;5071247;28;20037;-59
2023/08/23 11:28:31;;;;;;;7.80;2.38;;;32.70;99.10;;;;;;5071601;28;20076;-61
2023/08/23 11:31:06;;;;;;;3.78;1.92;;;32.60;98.70;;;;;;5072040;28;20048;-61
2023/08/23 11:33:32;;;;;;;3.83;1.85;;;32.40;97.90;;;;;;5072372;28;20483;-60
2023/08/23 11:35:58;;;;;;;5.80;2.55;;;32.20;98.50;;;;;;5072253;28;20028;-60
2023/08/23 11:38:28;;;;;;;6.35;1.85;;;32.20;98.90;;;;;;5072242;28;20039;-60
2023/08/23 11:40:54;;;;;;;3.30;1.73;;;32.10;98.80;;;;;;5072066;28;20119;-60
2023/08/23 11:43:19;;;;;;;6.80;2.78;;;32.00;99.40;;;;;;5072089;28;20115;-60
2023/08/23 11:45:46;;;;;;;6.00;2.10;;;31.90;99.00;;;;;;5072041;28;20036;-60
2023/08/23 11:48:12;;;;;;;4.38;1.95;;;31.90;99.80;;;;;;5068360;28;20037;-61
2023/08/23 11:50:41;;;;;;;6.68;2.05;;;31.80;99.90;;;;;;5065194;28;20032;-60
2023/08/23 11:53:08;;;;;;;3.08;1.70;;;31.20;99.90;;;;;;5067859;28;20044;-60
2023/08/23 11:55:34;;;;;;;6.97;1.95;;;30.40;99.90;;;;;;5052141;28;20371;-59
2023/08/23 11:58:02;;;;;;;8.20;1.77;;;29.90;99.90;;;;;;5069513;28;20040;-59
2023/08/23 12:00:27;;;;;;;3.85;1.65;;;29.60;99.90;;;;;;5061695;28;20495;-61
2023/08/23 12:02:53;;;;;;;5.50;1.95;;;29.10;99.90;;;;;;5051526;28;20044;-60
2023/08/23 12:05:22;;;;;;;5.03;2.33;;;28.70;99.90;;;;;;5051947;28;20060;-59
2023/08/23 12:07:47;;;;;;;5.15;1.85;;;28.20;99.90;;;;;;5051711;28;20040;-59
2023/08/23 12:10:14;;;;;;;8.10;2.70;;;28.00;99.90;;;;;;5065541;28;20036;-59
2023/08/23 12:12:39;;;;;;;5.63;2.70;;;27.60;99.90;;;;;;5071730;28;20040;-60
2023/08/23 12:15:06;;;;;;;4.28;1.92;;;27.50;99.90;;;;;;5071969;28;20688;-59
2023/08/23 12:17:32;;;;;;;3.65;2.10;;;27.60;99.90;;;;;;5071874;28;20394;-59
2023/08/23 12:19:59;;;;;;;6.85;2.30;;;28.00;99.90;;;;;;5070879;28;20116;-60
2023/08/23 12:22:25;;;;;;;10.93;1.92;;;28.30;99.90;;;;;;5071823;28;20471;-59
2023/08/23 12:24:51;;;;;;;5.15;1.73;;;28.40;99.90;;;;;;5069107;28;20044;-61
2023/08/23 12:27:17;;;;;;;4.68;1.80;;;28.40;99.90;;;;;;5070504;28;20379;-59
2023/08/23 12:29:43;;;;;;;5.05;1.80;;;28.40;99.90;;;;;;5071485;28;20060;-59
2023/08/23 12:32:08;;;;;;;5.55;1.45;;;28.30;99.90;;;;;;5071668;28;20041;-60
2023/08/23 12:34:34;;;;;;;6.50;1.67;;;28.20;99.90;;;;;;5071601;28;20036;-60
2023/08/23 12:37:00;;;;;;;3.35;1.20;;;28.30;99.90;;;;;;5071618;28;20092;-59
2023/08/23 12:39:27;;;;;;;3.83;1.00;;;28.20;99.90;;;;;;5071898;28;20036;-60